Terminal Aerodrome Forecast
Issued by NWS Wilmington, OH

Home | Current Version | Previous Version | Text Only | Print | Product List | Glossary On
Versions: 1 2 3 4 5 6 7 8 9 10 11 12 13 14 15 16 17
000
FTUS41 KILN 280100 AAA
TAFILN
TAF AMD
KILN 280107Z 2801/2824 23006KT 4SM -RA BR OVC004
     FM280400 27006KT 2SM -RA BR OVC004
     FM280800 34010KT 4SM -RA BR OVC007
     FM281100 34008KT 5SM BR OVC007
     FM281400 34008KT P6SM OVC010
     FM281800 34008KT P6SM OVC020=

USA.gov is the U.S. government's official web portal to all federal, state and local government web resources and services.